Ana Sayfa
METAR-TAF:

METAR-TAF

Havaalanları :

Mersing, Malezya

Enlem: 02-23-00N, Boylam: 103-51-34E, yükseklik: 3 m

Güncel hava durumu gözlemi

Rapor saat 21:00 UTC de 59 dakika önce yapıldı.
Rüzgar kuzeydan 11 kt, batı/kuzeybatı ve doğu/kuzeydoğu arasında değişken
Sıcaklık 26°C
Nem 94%
Basınç 1010 hPa

METAR: WMAU 242100Z AUTO 01011KT 300V060 //// // ////// 26/25 Q1010

Saat: 05:59 (21:59 UTC)


TAF: eksik

4.000'den fazla havaalanı için hava durumu gözlemleri ve tahminleri (METAR ve TAF raporları).

Kullanılabilir istasyonlar harita üzerinde sarı ve kırmızı noktalarla gösterilir.

İstasyonun adını görmek için fareyi noktanın üzerinde gezdirin.

Sonrasında hava gözlem ve tahminlerini görmek için tıklayın.

Haritayı değiştirmek için: yaklaştırmak için siyah artı işaretli yeşil düğmeye ve uzaklaştırmak için de eksi işaretli düğmeye hızla tıklayın; bitişik haritalar için yeşil okları kullanın.


METAR-TAF: